createdAt,value
2023-02-18T00:01:50.027Z,98908.92
2023-02-18T00:04:17.919Z,98927.87
2023-02-18T00:06:45.728Z,98929.10
2023-02-18T00:09:13.550Z,98942.79
2023-02-18T00:11:41.479Z,98946.02
2023-02-18T00:14:13.512Z,98937.65
2023-02-18T00:16:42.975Z,98941.11
2023-02-18T00:19:19.418Z,98939.31
2023-02-18T00:21:47.802Z,98945.95
2023-02-18T00:24:16.569Z,98946.45
2023-02-18T00:26:45.284Z,98950.04
2023-02-18T00:29:13.413Z,98952.05
2023-02-18T00:31:43.107Z,98956.32
2023-02-18T00:34:13.016Z,98962.95
2023-02-18T00:36:41.367Z,98962.93
2023-02-18T00:39:11.265Z,98966.83
2023-02-18T00:41:41.346Z,98962.95
2023-02-18T00:44:10.757Z,98966.29
2023-02-18T00:46:39.112Z,98967.45
2023-02-18T00:49:08.739Z,98961.13
2023-02-18T00:51:37.085Z,98963.83
2023-02-18T00:54:05.205Z,98954.38
2023-02-18T00:56:33.344Z,98957.77
2023-02-18T00:59:01.282Z,98968.94
2023-02-18T01:01:29.989Z,98972.17
2023-02-18T01:03:57.947Z,98965.73
2023-02-18T01:06:25.921Z,98972.02
2023-02-18T01:08:53.767Z,98971.20
2023-02-18T01:11:21.673Z,98971.58
2023-02-18T01:13:49.549Z,98973.95
2023-02-18T01:16:17.546Z,98978.41
2023-02-18T01:18:47.635Z,98973.98
2023-02-18T01:21:16.276Z,98967.56
2023-02-18T01:23:44.211Z,98963.37
2023-02-18T01:26:12.080Z,98968.59
2023-02-18T01:28:41.626Z,98965.16
2023-02-18T01:31:12.505Z,98965.21
2023-02-18T01:33:41.341Z,98968.45
2023-02-18T01:36:11.025Z,98965.54
2023-02-18T01:38:39.388Z,98971.16
2023-02-18T01:41:08.054Z,98966.48
2023-02-18T01:43:37.887Z,98966.69
2023-02-18T01:46:22.275Z,98967.10
2023-02-18T01:49:01.319Z,98967.10
2023-02-18T01:51:37.523Z,98973.41
2023-02-18T01:54:13.784Z,98963.83
2023-02-18T01:56:48.561Z,98962.58
2023-02-18T01:59:21.835Z,98970.08
2023-02-18T02:01:49.934Z,98970.27
2023-02-18T02:04:18.453Z,98971.89
2023-02-18T02:06:46.382Z,98967.35
2023-02-18T02:09:17.816Z,98976.39
2023-02-18T02:12:25.694Z,98977.61
2023-02-18T02:15:12.083Z,98973.81
2023-02-18T02:17:58.190Z,98973.11
2023-02-18T02:20:32.033Z,98971.63
2023-02-18T02:23:18.799Z,98973.88
2023-02-18T02:26:21.016Z,98977.36
2023-02-18T02:29:30.682Z,98974.23
2023-02-18T02:32:16.788Z,98979.39
2023-02-18T02:35:02.209Z,98978.02
2023-02-18T02:37:48.592Z,98974.27
2023-02-18T02:40:51.472Z,98965.86
2023-02-18T02:43:51.749Z,98957.66
2023-02-18T02:46:36.824Z,98968.68
2023-02-18T02:49:11.036Z,98970.81
2023-02-18T02:52:17.522Z,98973.02
2023-02-18T02:54:45.460Z,98977.20
2023-02-18T02:57:13.676Z,98982.52
2023-02-18T02:59:56.144Z,98988.79
2023-02-18T03:02:34.909Z,98985.66
2023-02-18T03:05:24.598Z,98990.35
2023-02-18T03:08:00.728Z,98995.23
2023-02-18T03:10:57.330Z,98988.80
2023-02-18T03:13:56.102Z,98990.41
2023-02-18T03:16:50.774Z,98985.44
2023-02-18T03:19:29.084Z,98995.55
2023-02-18T03:22:13.447Z,98994.32
2023-02-18T03:24:43.910Z,98992.23
2023-02-18T03:27:22.389Z,98988.72
2023-02-18T03:30:04.457Z,99001.41
2023-02-18T03:32:35.555Z,99002.54
2023-02-18T03:35:15.461Z,99006.06
2023-02-18T03:37:50.999Z,99008.09
2023-02-18T03:40:19.318Z,99007.67
2023-02-18T03:42:47.286Z,99006.19
2023-02-18T03:45:15.267Z,99019.18
2023-02-18T03:47:43.228Z,99017.20
2023-02-18T03:50:11.172Z,99022.55
2023-02-18T03:52:39.145Z,99026.83
2023-02-18T03:55:09.266Z,99023.40
2023-02-18T03:57:37.946Z,99024.33
2023-02-18T04:00:06.905Z,99024.86
2023-02-18T04:02:41.442Z,99028.98
2023-02-18T04:05:10.363Z,99026.77
2023-02-18T04:07:38.197Z,99029.25
2023-02-18T04:10:08.424Z,99036.34
2023-02-18T04:12:36.290Z,99038.88
2023-02-18T04:15:04.836Z,99041.06
2023-02-18T04:17:34.045Z,99045.27
2023-02-18T04:20:02.015Z,99047.95
2023-02-18T04:22:29.945Z,99046.29
2023-02-18T04:24:57.746Z,99045.11
2023-02-18T04:27:25.546Z,99042.09
2023-02-18T04:29:53.460Z,99049.86
2023-02-18T04:32:21.416Z,99053.57
2023-02-18T04:34:49.248Z,99054.34
2023-02-18T04:37:17.158Z,99050.02
2023-02-18T04:39:44.969Z,99053.02
2023-02-18T04:42:12.893Z,99054.45
2023-02-18T04:44:40.747Z,99052.73
2023-02-18T04:47:09.028Z,99054.70
2023-02-18T04:49:37.016Z,99046.30
2023-02-18T04:52:05.093Z,99049.41
2023-02-18T04:54:33.049Z,99044.09
2023-02-18T04:57:00.831Z,99041.66
2023-02-18T04:59:28.745Z,99041.74
2023-02-18T05:01:56.655Z,99042.17
2023-02-18T05:04:24.661Z,99039.10
2023-02-18T05:06:52.628Z,99041.78
2023-02-18T05:09:20.603Z,99041.84
2023-02-18T05:11:48.978Z,99039.33
2023-02-18T05:14:16.943Z,99043.80
2023-02-18T05:16:44.795Z,99043.85
2023-02-18T05:19:16.296Z,99044.25
2023-02-18T05:21:44.482Z,99046.41
2023-02-18T05:24:12.351Z,99040.73
2023-02-18T05:26:40.176Z,99042.05
2023-02-18T05:29:07.963Z,99050.84
2023-02-18T05:31:35.959Z,99046.27
2023-02-18T05:34:04.318Z,99038.86
2023-02-18T05:36:32.513Z,99035.66
2023-02-18T05:39:00.324Z,99043.82
2023-02-18T05:41:28.108Z,99045.04
2023-02-18T05:44:14.214Z,99049.39
2023-02-18T05:46:42.090Z,99048.16
2023-02-18T05:49:10.017Z,99063.73
2023-02-18T05:51:37.883Z,99060.86
2023-02-18T05:54:05.730Z,99064.48
2023-02-18T05:56:33.532Z,99046.39
2023-02-18T05:59:01.416Z,99051.13
2023-02-18T06:01:29.838Z,99058.15
2023-02-18T06:03:57.826Z,99058.80
2023-02-18T06:06:25.759Z,99059.95
2023-02-18T06:08:53.585Z,99060.64
2023-02-18T06:11:21.475Z,99062.86
2023-02-18T06:13:49.342Z,99062.44
2023-02-18T06:16:17.190Z,99061.85
2023-02-18T06:18:44.995Z,99059.48
2023-02-18T06:21:12.924Z,99065.73
2023-02-18T06:23:40.788Z,99065.45
2023-02-18T06:26:09.082Z,99063.59
2023-02-18T06:28:37.172Z,99059.81
2023-02-18T06:31:05.102Z,99064.14
2023-02-18T06:33:33.136Z,99070.36
2023-02-18T06:36:11.881Z,99068.69
2023-02-18T06:38:41.492Z,99072.30
2023-02-18T06:41:10.040Z,99073.27
2023-02-18T06:43:38.110Z,99074.43
2023-02-18T06:46:06.767Z,99076.24
2023-02-18T06:48:35.052Z,99074.55
2023-02-18T06:51:03.981Z,99073.21
2023-02-18T06:53:31.842Z,99073.40
2023-02-18T06:55:59.703Z,99072.86
2023-02-18T06:58:27.622Z,99072.59
2023-02-18T07:00:55.463Z,99069.23
2023-02-18T07:03:23.347Z,99069.09
2023-02-18T07:05:51.276Z,99069.95
2023-02-18T07:08:19.205Z,99068.85
2023-02-18T07:10:48.070Z,99071.46
2023-02-18T07:13:16.145Z,99073.55
2023-02-18T07:15:44.156Z,99071.79
2023-02-18T07:18:12.092Z,99070.52
2023-02-18T07:20:40.100Z,99068.38
2023-02-18T07:23:08.054Z,99074.29
2023-02-18T07:25:35.884Z,99067.69
2023-02-18T07:28:03.800Z,99076.29
2023-02-18T07:30:31.869Z,99073.66
2023-02-18T07:32:59.736Z,99066.13
2023-02-18T07:35:27.553Z,99066.71
2023-02-18T07:37:55.407Z,99064.96
2023-02-18T07:40:23.394Z,99065.08
2023-02-18T07:42:51.237Z,99072.20
2023-02-18T07:45:20.323Z,99066.97
2023-02-18T07:47:48.218Z,99068.87
2023-02-18T07:50:16.083Z,99062.23
2023-02-18T07:52:44.302Z,99061.15
2023-02-18T07:55:12.423Z,99067.64
2023-02-18T07:57:57.256Z,99062.88
2023-02-18T08:00:25.290Z,99061.37
2023-02-18T08:02:53.151Z,99070.21
2023-02-18T08:05:21.236Z,99069.34
2023-02-18T08:07:49.178Z,99070.20
2023-02-18T08:10:17.023Z,99069.41
2023-02-18T08:12:44.955Z,99068.92
2023-02-18T08:15:13.527Z,99062.55
2023-02-18T08:17:41.440Z,99068.41
2023-02-18T08:20:10.559Z,99068.77
2023-02-18T08:22:38.565Z,99070.23
2023-02-18T08:25:07.005Z,99055.03
2023-02-18T08:27:34.977Z,99046.98
2023-02-18T08:30:03.472Z,99042.48
2023-02-18T08:32:31.330Z,99049.20
2023-02-18T08:34:59.423Z,99060.63
2023-02-18T08:37:27.335Z,99068.35
2023-02-18T08:39:55.154Z,99066.64
2023-02-18T08:42:23.012Z,99065.26
2023-02-18T08:44:50.975Z,99062.11
2023-02-18T08:48:16.646Z,99067.05
2023-02-18T08:50:07.113Z,99070.95
2023-02-18T08:52:35.071Z,99081.42
2023-02-18T08:55:05.182Z,99074.48
2023-02-18T08:57:33.173Z,99079.73
2023-02-18T09:00:01.031Z,99077.30
2023-02-18T09:02:29.329Z,99079.39
2023-02-18T09:04:57.327Z,99080.15
2023-02-18T09:07:25.197Z,99078.77
2023-02-18T09:09:53.178Z,99074.36
2023-02-18T09:12:21.008Z,99071.36
2023-02-18T09:14:49.019Z,99070.19
2023-02-18T09:17:16.793Z,99068.95
2023-02-18T09:19:44.795Z,99070.38
2023-02-18T09:22:12.985Z,99079.32
2023-02-18T09:24:42.072Z,99075.27
2023-02-18T09:27:11.366Z,99074.16
2023-02-18T09:29:40.828Z,99072.17
2023-02-18T09:32:09.719Z,99077.91
2023-02-18T09:34:38.215Z,99069.55
2023-02-18T09:37:06.174Z,99063.27
2023-02-18T09:39:34.072Z,99056.29
2023-02-18T09:42:07.957Z,99051.59
2023-02-18T09:44:42.431Z,99051.60
2023-02-18T09:47:19.562Z,99054.08
2023-02-18T09:49:55.056Z,99052.33
2023-02-18T09:52:29.901Z,99044.44
2023-02-18T09:54:58.124Z,99044.29
2023-02-18T09:57:40.922Z,99043.80
2023-02-18T10:00:28.710Z,99042.64
2023-02-18T10:03:05.186Z,99034.45
2023-02-18T10:05:35.120Z,99035.45
2023-02-18T10:08:06.770Z,99031.94
2023-02-18T10:10:39.884Z,99021.94
2023-02-18T10:13:19.693Z,99015.79
2023-02-18T10:15:49.243Z,99007.19
2023-02-18T10:18:25.854Z,98998.52
2023-02-18T10:21:09.679Z,98992.98
2023-02-18T10:23:54.637Z,98985.08
2023-02-18T10:26:22.514Z,98978.13
2023-02-18T10:28:52.485Z,98974.20
2023-02-18T10:31:29.313Z,98965.10
2023-02-18T10:34:39.408Z,98959.12
2023-02-18T10:37:25.939Z,98949.23
2023-02-18T10:40:35.111Z,98948.80
2023-02-18T10:43:02.882Z,98939.88
2023-02-18T10:45:45.843Z,98931.08
2023-02-18T10:48:31.209Z,98924.67
2023-02-18T10:51:03.006Z,98917.99
2023-02-18T10:53:35.162Z,98905.37
2023-02-18T10:56:05.803Z,98896.86
2023-02-18T10:58:36.024Z,98890.36
2023-02-18T11:01:08.951Z,98884.77
2023-02-18T11:03:48.519Z,98877.29
2023-02-18T11:06:19.808Z,98870.55
2023-02-18T11:08:49.889Z,98871.27
2023-02-18T11:11:29.009Z,98868.06
2023-02-18T11:14:04.430Z,98860.50
2023-02-18T11:16:39.727Z,98853.36
2023-02-18T11:19:36.854Z,98840.95
2023-02-18T11:22:25.017Z,98826.46
2023-02-18T11:25:07.020Z,98821.45
2023-02-18T11:27:46.399Z,98815.10
2023-02-18T11:30:27.169Z,98804.66
2023-02-18T11:33:03.467Z,98801.22
2023-02-18T11:35:33.226Z,98786.46
2023-02-18T11:38:04.379Z,98781.51
2023-02-18T11:40:35.005Z,98777.26
2023-02-18T11:43:21.248Z,98761.52
2023-02-18T11:46:09.845Z,98748.46
2023-02-18T11:48:38.903Z,98741.30
2023-02-18T11:51:16.343Z,98736.90
2023-02-18T11:54:26.222Z,98729.05
2023-02-18T11:56:58.972Z,98715.68
2023-02-18T11:59:29.498Z,98702.51
2023-02-18T12:02:13.365Z,98696.44
2023-02-18T12:04:50.412Z,98689.56
2023-02-18T12:07:28.258Z,98681.61
2023-02-18T12:10:04.821Z,98670.08
2023-02-18T12:12:45.584Z,98661.07
2023-02-18T12:15:21.360Z,98649.61
2023-02-18T12:18:16.412Z,98645.57
2023-02-18T12:21:06.649Z,98633.91
2023-02-18T12:23:52.182Z,98622.27
2023-02-18T12:26:42.256Z,98615.72
2023-02-18T12:29:19.216Z,98614.39
2023-02-18T12:31:51.002Z,98613.20
2023-02-18T12:34:51.886Z,98608.33
2023-02-18T12:37:44.136Z,98597.41
2023-02-18T12:40:35.518Z,98594.77
2023-02-18T12:43:31.394Z,98587.11
2023-02-18T12:46:27.273Z,98582.12
2023-02-18T12:49:26.483Z,98578.77
2023-02-18T12:52:11.992Z,98576.61
2023-02-18T12:55:09.069Z,98569.35
2023-02-18T12:57:48.153Z,98563.08
2023-02-18T13:00:55.239Z,98553.21
2023-02-18T13:03:42.826Z,98549.47
2023-02-18T13:06:19.904Z,98542.29
2023-02-18T13:09:32.744Z,98534.23
2023-02-18T13:12:06.278Z,98529.77
2023-02-18T13:14:40.383Z,98529.95
2023-02-18T13:17:10.942Z,98518.45
2023-02-18T13:19:52.880Z,98514.50
2023-02-18T13:22:25.464Z,98513.33
2023-02-18T13:24:58.007Z,98504.09
2023-02-18T13:27:38.799Z,98497.17
2023-02-18T13:30:41.306Z,98490.48
2023-02-18T13:33:29.197Z,98491.46
2023-02-18T13:36:29.464Z,98483.45
2023-02-18T13:39:04.682Z,98478.48
2023-02-18T13:41:42.674Z,98472.05
2023-02-18T13:44:30.470Z,98466.27
2023-02-18T13:46:59.695Z,98461.17
2023-02-18T13:49:38.314Z,98464.50
2023-02-18T13:52:17.359Z,98465.55
2023-02-18T13:54:48.883Z,98453.94
2023-02-18T13:57:22.111Z,98444.04
2023-02-18T13:59:59.975Z,98430.38
2023-02-18T14:02:37.061Z,98427.34
2023-02-18T14:05:08.652Z,98423.39
2023-02-18T14:07:36.719Z,98415.86
2023-02-18T14:10:10.314Z,98412.00
2023-02-18T14:12:44.518Z,98404.41
2023-02-18T14:15:18.443Z,98402.08
2023-02-18T14:17:50.417Z,98397.36
2023-02-18T14:20:21.649Z,98386.40
2023-02-18T14:22:51.989Z,98380.50
2023-02-18T14:25:19.948Z,98383.40
2023-02-18T14:27:55.056Z,98365.25
2023-02-18T14:30:23.473Z,98361.63
2023-02-18T14:32:56.602Z,98355.88
2023-02-18T14:35:37.433Z,98360.61
2023-02-18T14:38:16.065Z,98357.74
2023-02-18T14:41:10.214Z,98361.59
2023-02-18T14:43:58.027Z,98361.06
2023-02-18T14:46:50.300Z,98360.77
2023-02-18T14:49:27.807Z,98365.45
2023-02-18T14:51:57.862Z,98368.66
2023-02-18T14:54:29.046Z,98367.47
2023-02-18T14:57:01.290Z,98376.84
2023-02-18T14:59:35.504Z,98379.98
2023-02-18T15:02:03.525Z,98383.64
2023-02-18T15:04:31.461Z,98377.67
2023-02-18T15:07:05.733Z,98376.72
2023-02-18T15:09:33.696Z,98387.84
2023-02-18T15:12:05.568Z,98401.92
2023-02-18T15:14:39.874Z,98400.58
2023-02-18T15:17:15.022Z,98424.85
2023-02-18T15:19:53.776Z,98395.16
2023-02-18T15:22:26.723Z,98394.24
2023-02-18T15:24:56.051Z,98399.77
2023-02-18T15:27:28.111Z,98391.05
2023-02-18T15:30:28.398Z,98389.42
2023-02-18T15:32:59.224Z,98388.14
2023-02-18T15:35:30.909Z,98384.28
2023-02-18T15:38:00.997Z,98383.45
2023-02-18T15:40:37.099Z,98376.98
2023-02-18T15:43:06.698Z,98371.38
2023-02-18T15:45:38.677Z,98367.40
2023-02-18T15:48:06.745Z,98367.61
2023-02-18T15:50:45.090Z,98357.51
2023-02-18T15:53:18.511Z,98366.38
2023-02-18T15:55:49.316Z,98373.42
2023-02-18T15:58:22.687Z,98375.40
2023-02-18T16:00:56.786Z,98360.67
2023-02-18T16:03:30.640Z,98364.91
2023-02-18T16:06:29.708Z,98361.27
2023-02-18T16:09:07.312Z,98376.94
2023-02-18T16:11:44.565Z,98382.43
2023-02-18T16:14:29.317Z,98377.61
2023-02-18T16:17:13.611Z,98382.80
2023-02-18T16:20:04.072Z,98383.52
2023-02-18T16:22:36.677Z,98370.80
2023-02-18T16:25:17.258Z,98360.82
2023-02-18T16:27:53.008Z,98383.09
2023-02-18T16:30:24.142Z,98385.23
2023-02-18T16:32:52.265Z,98390.23
2023-02-18T16:35:21.546Z,98397.42
2023-02-18T16:37:52.301Z,98397.19
2023-02-18T16:40:20.130Z,98421.60
2023-02-18T16:42:48.039Z,98427.52
2023-02-18T16:45:16.101Z,98416.31
2023-02-18T16:47:49.001Z,98407.89
2023-02-18T16:50:21.982Z,98410.09
2023-02-18T16:52:50.390Z,98424.71
2023-02-18T16:55:23.879Z,98440.46
2023-02-18T16:57:51.705Z,98426.34
2023-02-18T17:00:20.965Z,98434.37
2023-02-18T17:02:50.794Z,98441.45
2023-02-18T17:05:27.078Z,98446.84
2023-02-18T17:07:59.629Z,98456.31
2023-02-18T17:10:27.669Z,98455.30
2023-02-18T17:12:55.478Z,98453.60
2023-02-18T17:15:23.430Z,98452.17
2023-02-18T17:17:51.722Z,98451.13
2023-02-18T17:20:20.041Z,98454.55
2023-02-18T17:22:47.949Z,98462.62
2023-02-18T17:25:22.336Z,98471.11
2023-02-18T17:27:50.241Z,98467.35
2023-02-18T17:30:18.308Z,98461.67
2023-02-18T17:32:46.737Z,98474.84
2023-02-18T17:35:19.717Z,98472.59
2023-02-18T17:37:48.826Z,98473.60
2023-02-18T17:40:20.180Z,98485.40
2023-02-18T17:42:48.021Z,98480.37
2023-02-18T17:45:19.217Z,98473.48
2023-02-18T17:47:47.988Z,98483.73
2023-02-18T17:50:16.479Z,98483.39
2023-02-18T17:52:44.491Z,98472.67
2023-02-18T17:55:25.020Z,98477.54
2023-02-18T17:57:53.728Z,98487.30
2023-02-18T18:00:28.072Z,98494.00
2023-02-18T18:02:55.941Z,98488.38
2023-02-18T18:05:27.553Z,98492.75
2023-02-18T18:07:56.060Z,98505.44
2023-02-18T18:10:30.586Z,98517.75
2023-02-18T18:13:00.610Z,98525.77
2023-02-18T18:15:40.630Z,98529.73
2023-02-18T18:18:11.698Z,98529.34
2023-02-18T18:20:43.114Z,98534.02
2023-02-18T18:23:16.849Z,98552.09
2023-02-18T18:25:53.226Z,98560.86
2023-02-18T18:28:21.800Z,98563.89
2023-02-18T18:30:52.290Z,98568.96
2023-02-18T18:33:29.549Z,98567.33
2023-02-18T18:35:59.366Z,98565.97
2023-02-18T18:38:28.743Z,98583.20
2023-02-18T18:40:57.217Z,98588.55
2023-02-18T18:43:26.569Z,98583.33
2023-02-18T18:45:55.482Z,98587.37
2023-02-18T18:48:24.130Z,98600.66
2023-02-18T18:50:53.392Z,98612.98
2023-02-18T18:53:25.004Z,98608.37
2023-02-18T18:55:55.423Z,98611.56
2023-02-18T18:58:24.758Z,98612.04
2023-02-18T19:00:57.232Z,98605.69
2023-02-18T19:03:26.559Z,98611.71
2023-02-18T19:05:54.820Z,98610.67
2023-02-18T19:08:23.139Z,98624.70
2023-02-18T19:10:53.841Z,98620.61
2023-02-18T19:13:25.782Z,98633.38
2023-02-18T19:16:02.091Z,98637.65
2023-02-18T19:18:32.445Z,98636.71
2023-02-18T19:21:07.254Z,98635.37
2023-02-18T19:23:36.338Z,98634.30
2023-02-18T19:26:04.745Z,98638.67
2023-02-18T19:28:32.808Z,98644.56
2023-02-18T19:31:10.897Z,98642.16
2023-02-18T19:33:39.686Z,98653.45
2023-02-18T19:36:11.390Z,98655.02
2023-02-18T19:38:39.516Z,98649.02
2023-02-18T19:41:14.984Z,98657.39
2023-02-18T19:43:44.649Z,98664.48
2023-02-18T19:46:16.013Z,98680.98
2023-02-18T19:48:47.864Z,98686.09
2023-02-18T19:51:15.729Z,98678.32
2023-02-18T19:53:43.597Z,98692.52
2023-02-18T19:56:11.559Z,98702.76
2023-02-18T19:58:40.156Z,98708.83
2023-02-18T20:01:12.262Z,98704.42
2023-02-18T20:03:40.329Z,98706.30
2023-02-18T20:06:18.479Z,98704.10
2023-02-18T20:08:47.064Z,98711.61
2023-02-18T20:11:15.277Z,98721.13
2023-02-18T20:13:43.238Z,98717.59
2023-02-18T20:16:11.966Z,98724.41
2023-02-18T20:18:39.902Z,98716.84
2023-02-18T20:21:11.000Z,98727.89
2023-02-18T20:23:39.306Z,98731.11
2023-02-18T20:26:09.059Z,98737.30
2023-02-18T20:28:37.045Z,98740.97
2023-02-18T20:31:11.366Z,98741.73
2023-02-18T20:33:42.186Z,98740.59
2023-02-18T20:36:11.170Z,98747.25
2023-02-18T20:38:39.292Z,98751.55
2023-02-18T20:41:09.765Z,98749.29
2023-02-18T20:43:38.106Z,98757.95
2023-02-18T20:46:08.211Z,98769.18
2023-02-18T20:48:37.091Z,98777.23
2023-02-18T20:51:06.541Z,98777.55
2023-02-18T20:53:36.103Z,98779.42
2023-02-18T20:56:04.943Z,98779.02
2023-02-18T20:58:33.462Z,98782.71
2023-02-18T21:01:06.278Z,98781.11
2023-02-18T21:03:37.693Z,98788.63
2023-02-18T21:06:15.263Z,98783.11
2023-02-18T21:08:45.243Z,98786.38
2023-02-18T21:11:16.463Z,98793.19
2023-02-18T21:13:47.065Z,98800.52
2023-02-18T21:16:18.037Z,98818.73
2023-02-18T21:18:46.354Z,98840.82
2023-02-18T21:21:14.969Z,98849.67
2023-02-18T21:23:42.932Z,98851.99
2023-02-18T21:26:13.344Z,98851.45
2023-02-18T21:28:42.777Z,98857.25
2023-02-18T21:31:18.901Z,98855.40
2023-02-18T21:33:47.461Z,98862.40
2023-02-18T21:36:16.556Z,98863.73
2023-02-18T21:38:44.832Z,98874.81
2023-02-18T21:41:12.851Z,98870.51
2023-02-18T21:43:44.880Z,98867.02
2023-02-18T21:46:19.902Z,98861.77
2023-02-18T21:49:03.419Z,98860.95
2023-02-18T21:51:55.956Z,98864.81
2023-02-18T21:54:41.625Z,98870.10
2023-02-18T21:57:15.060Z,98871.52
2023-02-18T21:59:43.272Z,98869.66
2023-02-18T22:02:23.251Z,98876.33
2023-02-18T22:04:52.548Z,98874.99
2023-02-18T22:07:23.025Z,98879.73
2023-02-18T22:09:51.892Z,98880.63
2023-02-18T22:12:21.547Z,98872.09
2023-02-18T22:14:49.410Z,98873.34
2023-02-18T22:17:18.418Z,98876.08
2023-02-18T22:19:46.273Z,98877.19
2023-02-18T22:22:14.181Z,98875.94
2023-02-18T22:24:42.108Z,98879.17
2023-02-18T22:27:10.080Z,98880.02
2023-02-18T22:29:38.051Z,98883.95
2023-02-18T22:32:06.121Z,98886.28
2023-02-18T22:34:34.180Z,98884.34
2023-02-18T22:37:02.022Z,98880.46
2023-02-18T22:39:29.963Z,98878.48
2023-02-18T22:41:57.982Z,98877.77
2023-02-18T22:44:27.312Z,98885.08
2023-02-18T22:46:56.666Z,98881.95
2023-02-18T22:49:25.209Z,98890.32
2023-02-18T22:51:54.321Z,98886.53
2023-02-18T22:54:22.210Z,98886.39
2023-02-18T22:56:49.995Z,98894.89
2023-02-18T22:59:18.539Z,98896.55
2023-02-18T23:01:49.603Z,98907.27
2023-02-18T23:04:20.247Z,98909.55
2023-02-18T23:06:49.460Z,98907.83
2023-02-18T23:09:23.733Z,98901.45
2023-02-18T23:11:56.527Z,98895.87
2023-02-18T23:14:28.139Z,98900.23
2023-02-18T23:17:13.427Z,98900.91
2023-02-18T23:19:46.474Z,98901.58
2023-02-18T23:22:33.501Z,98897.55
2023-02-18T23:25:01.907Z,98898.14
2023-02-18T23:27:29.983Z,98902.14
2023-02-18T23:29:57.868Z,98900.95
2023-02-18T23:32:27.790Z,98901.61
2023-02-18T23:34:55.616Z,98904.23
2023-02-18T23:37:44.111Z,98904.61
2023-02-18T23:40:13.838Z,98903.61
2023-02-18T23:42:41.788Z,98907.25
2023-02-18T23:45:09.609Z,98907.20
2023-02-18T23:47:37.423Z,98907.85
2023-02-18T23:50:05.602Z,98904.16
2023-02-18T23:52:33.572Z,98898.02
2023-02-18T23:55:01.589Z,98886.02
2023-02-18T23:57:32.543Z,98891.14
